sensor_id;sensor_type;location;lat;lon;timestamp;P1;durP1;ratioP1;P2;durP2;ratioP2
76423;SDS011;65257;52.104;4.268;2023-08-21T00:01:44;9.05;;;2.42;;
76423;SDS011;65257;52.104;4.268;2023-08-21T00:04:09;8.45;;;2.10;;
76423;SDS011;65257;52.104;4.268;2023-08-21T00:06:35;6.35;;;2.25;;
76423;SDS011;65257;52.104;4.268;2023-08-21T00:09:01;6.63;;;2.33;;
76423;SDS011;65257;52.104;4.268;2023-08-21T00:11:27;8.90;;;2.15;;
76423;SDS011;65257;52.104;4.268;2023-08-21T00:13:52;7.30;;;2.50;;
76423;SDS011;65257;52.104;4.268;2023-08-21T00:16:18;6.13;;;1.95;;
76423;SDS011;65257;52.104;4.268;2023-08-21T00:18:44;6.22;;;2.05;;
76423;SDS011;65257;52.104;4.268;2023-08-21T00:21:13;6.00;;;1.80;;
76423;SDS011;65257;52.104;4.268;2023-08-21T00:23:38;5.50;;;2.00;;
76423;SDS011;65257;52.104;4.268;2023-08-21T00:26:07;5.93;;;2.20;;
76423;SDS011;65257;52.104;4.268;2023-08-21T00:28:32;6.97;;;2.45;;
76423;SDS011;65257;52.104;4.268;2023-08-21T00:31:00;6.65;;;2.15;;
76423;SDS011;65257;52.104;4.268;2023-08-21T00:33:32;7.85;;;2.25;;
76423;SDS011;65257;52.104;4.268;2023-08-21T00:35:58;5.03;;;2.10;;
76423;SDS011;65257;52.104;4.268;2023-08-21T00:38:24;5.38;;;1.88;;
76423;SDS011;65257;52.104;4.268;2023-08-21T00:40:53;6.18;;;2.05;;
76423;SDS011;65257;52.104;4.268;2023-08-21T00:43:20;5.10;;;2.60;;
76423;SDS011;65257;52.104;4.268;2023-08-21T00:45:48;6.50;;;2.30;;
76423;SDS011;65257;52.104;4.268;2023-08-21T00:48:32;6.65;;;2.58;;
76423;SDS011;65257;52.104;4.268;2023-08-21T00:50:58;6.28;;;2.70;;
76423;SDS011;65257;52.104;4.268;2023-08-21T00:53:24;7.55;;;2.63;;
76423;SDS011;65257;52.104;4.268;2023-08-21T00:55:50;7.47;;;2.47;;
76423;SDS011;65257;52.104;4.268;2023-08-21T00:58:19;7.38;;;2.20;;
76423;SDS011;65257;52.104;4.268;2023-08-21T01:00:48;7.47;;;2.20;;
76423;SDS011;65257;52.104;4.268;2023-08-21T01:03:21;4.90;;;2.10;;
76423;SDS011;65257;52.104;4.268;2023-08-21T01:05:50;7.15;;;2.10;;
76423;SDS011;65257;52.104;4.268;2023-08-21T01:10:54;4.05;;;1.90;;
76423;SDS011;65257;52.104;4.268;2023-08-21T01:13:58;6.97;;;2.33;;
76423;SDS011;65257;52.104;4.268;2023-08-21T01:16:38;7.30;;;2.63;;
76423;SDS011;65257;52.104;4.268;2023-08-21T01:19:07;7.18;;;2.55;;
76423;SDS011;65257;52.104;4.268;2023-08-21T01:21:41;11.45;;;2.78;;
76423;SDS011;65257;52.104;4.268;2023-08-21T01:24:07;8.98;;;2.75;;
76423;SDS011;65257;52.104;4.268;2023-08-21T01:26:32;6.47;;;2.00;;
76423;SDS011;65257;52.104;4.268;2023-08-21T01:28:58;7.63;;;3.08;;
76423;SDS011;65257;52.104;4.268;2023-08-21T01:31:30;8.38;;;2.35;;
76423;SDS011;65257;52.104;4.268;2023-08-21T01:33:59;7.95;;;2.80;;
76423;SDS011;65257;52.104;4.268;2023-08-21T01:36:29;9.80;;;2.72;;
76423;SDS011;65257;52.104;4.268;2023-08-21T01:39:06;5.78;;;2.72;;
76423;SDS011;65257;52.104;4.268;2023-08-21T01:41:35;6.85;;;2.03;;
76423;SDS011;65257;52.104;4.268;2023-08-21T01:44:00;7.22;;;2.53;;
76423;SDS011;65257;52.104;4.268;2023-08-21T01:46:27;7.88;;;2.67;;
76423;SDS011;65257;52.104;4.268;2023-08-21T01:48:56;6.82;;;2.30;;
76423;SDS011;65257;52.104;4.268;2023-08-21T01:51:21;8.25;;;3.00;;
76423;SDS011;65257;52.104;4.268;2023-08-21T01:53:52;7.50;;;3.05;;
76423;SDS011;65257;52.104;4.268;2023-08-21T01:56:18;8.55;;;2.97;;
76423;SDS011;65257;52.104;4.268;2023-08-21T01:58:43;6.88;;;2.72;;
76423;SDS011;65257;52.104;4.268;2023-08-21T02:01:12;7.22;;;2.10;;
76423;SDS011;65257;52.104;4.268;2023-08-21T02:03:40;5.85;;;1.80;;
76423;SDS011;65257;52.104;4.268;2023-08-21T02:06:06;6.55;;;2.35;;
76423;SDS011;65257;52.104;4.268;2023-08-21T02:08:35;5.50;;;2.50;;
76423;SDS011;65257;52.104;4.268;2023-08-21T02:11:00;7.30;;;1.98;;
76423;SDS011;65257;52.104;4.268;2023-08-21T02:13:26;6.68;;;2.42;;
76423;SDS011;65257;52.104;4.268;2023-08-21T02:15:51;6.78;;;2.45;;
76423;SDS011;65257;52.104;4.268;2023-08-21T02:18:17;7.78;;;2.28;;
76423;SDS011;65257;52.104;4.268;2023-08-21T02:20:46;6.03;;;2.03;;
76423;SDS011;65257;52.104;4.268;2023-08-21T02:23:18;7.72;;;1.85;;
76423;SDS011;65257;52.104;4.268;2023-08-21T02:25:43;9.68;;;1.65;;
76423;SDS011;65257;52.104;4.268;2023-08-21T02:28:09;5.60;;;1.63;;
76423;SDS011;65257;52.104;4.268;2023-08-21T02:30:34;7.07;;;1.88;;
76423;SDS011;65257;52.104;4.268;2023-08-21T02:33:04;7.10;;;1.65;;
76423;SDS011;65257;52.104;4.268;2023-08-21T02:35:29;6.80;;;2.50;;
76423;SDS011;65257;52.104;4.268;2023-08-21T02:37:58;8.40;;;2.28;;
76423;SDS011;65257;52.104;4.268;2023-08-21T02:40:24;5.75;;;2.25;;
76423;SDS011;65257;52.104;4.268;2023-08-21T02:42:53;7.97;;;3.10;;
76423;SDS011;65257;52.104;4.268;2023-08-21T02:45:18;8.90;;;2.47;;
76423;SDS011;65257;52.104;4.268;2023-08-21T02:47:44;11.48;;;2.50;;
76423;SDS011;65257;52.104;4.268;2023-08-21T02:50:09;8.13;;;2.65;;
76423;SDS011;65257;52.104;4.268;2023-08-21T02:52:36;9.52;;;3.10;;
76423;SDS011;65257;52.104;4.268;2023-08-21T02:55:05;7.07;;;2.33;;
76423;SDS011;65257;52.104;4.268;2023-08-21T02:57:31;4.90;;;2.70;;
76423;SDS011;65257;52.104;4.268;2023-08-21T02:59:56;7.35;;;2.42;;
76423;SDS011;65257;52.104;4.268;2023-08-21T03:02:22;5.45;;;2.25;;
76423;SDS011;65257;52.104;4.268;2023-08-21T03:04:49;10.15;;;2.65;;
76423;SDS011;65257;52.104;4.268;2023-08-21T03:07:14;5.45;;;2.10;;
76423;SDS011;65257;52.104;4.268;2023-08-21T03:09:41;7.13;;;2.85;;
76423;SDS011;65257;52.104;4.268;2023-08-21T03:12:07;7.05;;;2.38;;
76423;SDS011;65257;52.104;4.268;2023-08-21T03:14:33;6.07;;;2.40;;
76423;SDS011;65257;52.104;4.268;2023-08-21T03:17:00;6.65;;;2.70;;
76423;SDS011;65257;52.104;4.268;2023-08-21T03:19:29;7.60;;;2.33;;
76423;SDS011;65257;52.104;4.268;2023-08-21T03:21:57;10.82;;;3.10;;
76423;SDS011;65257;52.104;4.268;2023-08-21T03:24:23;7.45;;;3.03;;
76423;SDS011;65257;52.104;4.268;2023-08-21T03:26:56;8.18;;;2.85;;
76423;SDS011;65257;52.104;4.268;2023-08-21T03:29:25;8.65;;;2.90;;
76423;SDS011;65257;52.104;4.268;2023-08-21T03:31:52;8.13;;;2.75;;
76423;SDS011;65257;52.104;4.268;2023-08-21T03:34:18;5.90;;;2.50;;
76423;SDS011;65257;52.104;4.268;2023-08-21T03:36:44;6.47;;;2.45;;
76423;SDS011;65257;52.104;4.268;2023-08-21T03:39:10;8.27;;;3.42;;
76423;SDS011;65257;52.104;4.268;2023-08-21T03:41:35;9.68;;;3.75;;
76423;SDS011;65257;52.104;4.268;2023-08-21T03:44:03;11.13;;;3.28;;
76423;SDS011;65257;52.104;4.268;2023-08-21T03:46:29;9.45;;;2.90;;
76423;SDS011;65257;52.104;4.268;2023-08-21T03:48:54;8.45;;;2.92;;
76423;SDS011;65257;52.104;4.268;2023-08-21T03:51:19;7.10;;;2.78;;
76423;SDS011;65257;52.104;4.268;2023-08-21T03:53:45;7.32;;;2.30;;
76423;SDS011;65257;52.104;4.268;2023-08-21T03:56:10;5.60;;;2.10;;
76423;SDS011;65257;52.104;4.268;2023-08-21T03:58:36;10.73;;;2.40;;
76423;SDS011;65257;52.104;4.268;2023-08-21T04:01:01;7.82;;;2.70;;
76423;SDS011;65257;52.104;4.268;2023-08-21T04:03:27;14.27;;;2.58;;
76423;SDS011;65257;52.104;4.268;2023-08-21T04:05:55;7.43;;;3.08;;
76423;SDS011;65257;52.104;4.268;2023-08-21T04:08:22;8.77;;;2.50;;
76423;SDS011;65257;52.104;4.268;2023-08-21T04:10:48;10.65;;;2.42;;
76423;SDS011;65257;52.104;4.268;2023-08-21T04:13:13;7.35;;;2.42;;
76423;SDS011;65257;52.104;4.268;2023-08-21T04:15:38;8.68;;;2.70;;
76423;SDS011;65257;52.104;4.268;2023-08-21T04:18:05;6.93;;;2.55;;
76423;SDS011;65257;52.104;4.268;2023-08-21T04:20:31;7.50;;;2.30;;
76423;SDS011;65257;52.104;4.268;2023-08-21T04:22:59;8.55;;;2.33;;
76423;SDS011;65257;52.104;4.268;2023-08-21T04:25:24;11.63;;;3.85;;
76423;SDS011;65257;52.104;4.268;2023-08-21T04:27:50;8.13;;;2.60;;
76423;SDS011;65257;52.104;4.268;2023-08-21T04:30:15;6.70;;;2.65;;
76423;SDS011;65257;52.104;4.268;2023-08-21T04:32:40;7.60;;;2.17;;
76423;SDS011;65257;52.104;4.268;2023-08-21T04:35:06;11.77;;;3.85;;
76423;SDS011;65257;52.104;4.268;2023-08-21T04:37:33;7.10;;;2.53;;
76423;SDS011;65257;52.104;4.268;2023-08-21T04:39:59;8.82;;;2.97;;
76423;SDS011;65257;52.104;4.268;2023-08-21T04:42:30;8.38;;;2.80;;
76423;SDS011;65257;52.104;4.268;2023-08-21T04:44:56;6.15;;;2.30;;
76423;SDS011;65257;52.104;4.268;2023-08-21T04:47:25;10.88;;;3.38;;
76423;SDS011;65257;52.104;4.268;2023-08-21T04:49:54;6.53;;;2.95;;
76423;SDS011;65257;52.104;4.268;2023-08-21T04:52:23;7.10;;;2.85;;
76423;SDS011;65257;52.104;4.268;2023-08-21T04:54:55;10.13;;;2.95;;
76423;SDS011;65257;52.104;4.268;2023-08-21T04:57:20;5.85;;;2.60;;
76423;SDS011;65257;52.104;4.268;2023-08-21T04:59:48;6.72;;;3.25;;
76423;SDS011;65257;52.104;4.268;2023-08-21T05:02:17;9.25;;;2.80;;
76423;SDS011;65257;52.104;4.268;2023-08-21T05:04:49;7.30;;;3.30;;
76423;SDS011;65257;52.104;4.268;2023-08-21T05:07:14;7.90;;;3.22;;
76423;SDS011;65257;52.104;4.268;2023-08-21T05:09:41;8.00;;;3.42;;
76423;SDS011;65257;52.104;4.268;2023-08-21T05:12:09;9.60;;;4.25;;
76423;SDS011;65257;52.104;4.268;2023-08-21T05:14:34;7.05;;;2.72;;
76423;SDS011;65257;52.104;4.268;2023-08-21T05:16:59;9.23;;;3.10;;
76423;SDS011;65257;52.104;4.268;2023-08-21T05:19:25;6.63;;;3.47;;
76423;SDS011;65257;52.104;4.268;2023-08-21T05:21:50;8.13;;;3.65;;
76423;SDS011;65257;52.104;4.268;2023-08-21T05:24:16;9.27;;;3.50;;
76423;SDS011;65257;52.104;4.268;2023-08-21T05:26:41;10.00;;;4.28;;
76423;SDS011;65257;52.104;4.268;2023-08-21T05:29:16;9.15;;;4.32;;
76423;SDS011;65257;52.104;4.268;2023-08-21T05:31:41;10.63;;;4.78;;
76423;SDS011;65257;52.104;4.268;2023-08-21T05:34:07;8.35;;;4.32;;
76423;SDS011;65257;52.104;4.268;2023-08-21T05:36:33;14.10;;;4.82;;
76423;SDS011;65257;52.104;4.268;2023-08-21T05:38:58;10.52;;;4.53;;
76423;SDS011;65257;52.104;4.268;2023-08-21T05:41:23;9.30;;;4.55;;
76423;SDS011;65257;52.104;4.268;2023-08-21T05:43:49;9.32;;;4.45;;
76423;SDS011;65257;52.104;4.268;2023-08-21T05:46:14;15.93;;;5.13;;
76423;SDS011;65257;52.104;4.268;2023-08-21T05:48:40;11.40;;;4.72;;
76423;SDS011;65257;52.104;4.268;2023-08-21T05:51:14;7.47;;;4.32;;
76423;SDS011;65257;52.104;4.268;2023-08-21T05:53:39;10.80;;;5.05;;
76423;SDS011;65257;52.104;4.268;2023-08-21T05:56:05;11.48;;;4.50;;
76423;SDS011;65257;52.104;4.268;2023-08-21T05:58:30;12.10;;;5.32;;
76423;SDS011;65257;52.104;4.268;2023-08-21T06:01:01;11.48;;;5.93;;
76423;SDS011;65257;52.104;4.268;2023-08-21T06:03:33;13.75;;;5.97;;
76423;SDS011;65257;52.104;4.268;2023-08-21T06:06:01;10.75;;;4.82;;
76423;SDS011;65257;52.104;4.268;2023-08-21T06:08:27;13.05;;;4.50;;
76423;SDS011;65257;52.104;4.268;2023-08-21T06:10:52;9.88;;;4.20;;
76423;SDS011;65257;52.104;4.268;2023-08-21T06:13:19;11.43;;;3.72;;
76423;SDS011;65257;52.104;4.268;2023-08-21T06:15:45;12.85;;;3.60;;
76423;SDS011;65257;52.104;4.268;2023-08-21T06:18:10;8.98;;;3.70;;
76423;SDS011;65257;52.104;4.268;2023-08-21T06:20:36;12.50;;;3.80;;
76423;SDS011;65257;52.104;4.268;2023-08-21T06:23:02;9.77;;;3.88;;
76423;SDS011;65257;52.104;4.268;2023-08-21T06:25:27;14.07;;;3.42;;
76423;SDS011;65257;52.104;4.268;2023-08-21T06:27:59;12.52;;;4.50;;
76423;SDS011;65257;52.104;4.268;2023-08-21T06:30:25;8.88;;;3.22;;
76423;SDS011;65257;52.104;4.268;2023-08-21T06:32:51;13.35;;;3.30;;
76423;SDS011;65257;52.104;4.268;2023-08-21T06:35:16;13.20;;;3.25;;
76423;SDS011;65257;52.104;4.268;2023-08-21T06:37:45;10.25;;;3.72;;
76423;SDS011;65257;52.104;4.268;2023-08-21T06:40:10;9.98;;;3.47;;
76423;SDS011;65257;52.104;4.268;2023-08-21T06:42:36;7.30;;;2.63;;
76423;SDS011;65257;52.104;4.268;2023-08-21T06:45:02;10.82;;;2.55;;
76423;SDS011;65257;52.104;4.268;2023-08-21T06:47:34;8.75;;;2.00;;
76423;SDS011;65257;52.104;4.268;2023-08-21T06:49:59;7.32;;;2.15;;
76423;SDS011;65257;52.104;4.268;2023-08-21T06:52:28;6.53;;;2.10;;
76423;SDS011;65257;52.104;4.268;2023-08-21T06:54:53;6.13;;;1.85;;
76423;SDS011;65257;52.104;4.268;2023-08-21T06:57:18;9.60;;;2.30;;
76423;SDS011;65257;52.104;4.268;2023-08-21T06:59:44;6.10;;;1.92;;
76423;SDS011;65257;52.104;4.268;2023-08-21T07:02:09;6.57;;;2.00;;
76423;SDS011;65257;52.104;4.268;2023-08-21T07:04:35;6.95;;;1.90;;
76423;SDS011;65257;52.104;4.268;2023-08-21T07:07:01;8.60;;;2.20;;
76423;SDS011;65257;52.104;4.268;2023-08-21T07:09:30;6.13;;;2.00;;
76423;SDS011;65257;52.104;4.268;2023-08-21T07:11:55;11.35;;;2.38;;
76423;SDS011;65257;52.104;4.268;2023-08-21T07:14:24;7.63;;;1.70;;
76423;SDS011;65257;52.104;4.268;2023-08-21T07:16:52;8.55;;;2.17;;
76423;SDS011;65257;52.104;4.268;2023-08-21T07:19:21;7.63;;;1.95;;
76423;SDS011;65257;52.104;4.268;2023-08-21T07:22:14;7.20;;;2.03;;
76423;SDS011;65257;52.104;4.268;2023-08-21T07:24:43;9.15;;;2.17;;
76423;SDS011;65257;52.104;4.268;2023-08-21T07:27:08;8.13;;;1.60;;
76423;SDS011;65257;52.104;4.268;2023-08-21T07:29:37;8.13;;;1.48;;
76423;SDS011;65257;52.104;4.268;2023-08-21T07:32:02;5.40;;;1.60;;
76423;SDS011;65257;52.104;4.268;2023-08-21T07:34:28;8.88;;;1.98;;
76423;SDS011;65257;52.104;4.268;2023-08-21T07:36:56;6.85;;;1.85;;
76423;SDS011;65257;52.104;4.268;2023-08-21T07:39:22;5.60;;;1.83;;
76423;SDS011;65257;52.104;4.268;2023-08-21T07:41:47;6.18;;;1.67;;
76423;SDS011;65257;52.104;4.268;2023-08-21T07:44:14;7.30;;;1.90;;
76423;SDS011;65257;52.104;4.268;2023-08-21T07:46:39;6.38;;;1.75;;
76423;SDS011;65257;52.104;4.268;2023-08-21T07:49:04;11.30;;;2.60;;
76423;SDS011;65257;52.104;4.268;2023-08-21T07:51:30;9.55;;;2.10;;
76423;SDS011;65257;52.104;4.268;2023-08-21T07:53:55;5.35;;;1.77;;
76423;SDS011;65257;52.104;4.268;2023-08-21T07:56:20;5.60;;;1.50;;
76423;SDS011;65257;52.104;4.268;2023-08-21T07:58:46;6.03;;;1.55;;
76423;SDS011;65257;52.104;4.268;2023-08-21T08:01:11;8.68;;;2.13;;
76423;SDS011;65257;52.104;4.268;2023-08-21T08:03:36;8.00;;;1.65;;
76423;SDS011;65257;52.104;4.268;2023-08-21T08:06:03;7.13;;;2.25;;
76423;SDS011;65257;52.104;4.268;2023-08-21T08:08:29;6.97;;;1.58;;
76423;SDS011;65257;52.104;4.268;2023-08-21T08:10:59;7.50;;;1.83;;
76423;SDS011;65257;52.104;4.268;2023-08-21T08:13:29;8.45;;;2.25;;
76423;SDS011;65257;52.104;4.268;2023-08-21T08:15:54;8.82;;;1.70;;
76423;SDS011;65257;52.104;4.268;2023-08-21T08:18:20;8.27;;;2.15;;
76423;SDS011;65257;52.104;4.268;2023-08-21T08:20:46;5.30;;;1.73;;
76423;SDS011;65257;52.104;4.268;2023-08-21T08:23:11;4.93;;;1.80;;
76423;SDS011;65257;52.104;4.268;2023-08-21T08:25:37;4.97;;;1.35;;
76423;SDS011;65257;52.104;4.268;2023-08-21T08:28:05;5.93;;;2.15;;
76423;SDS011;65257;52.104;4.268;2023-08-21T08:30:30;7.60;;;2.10;;
76423;SDS011;65257;52.104;4.268;2023-08-21T08:32:56;6.72;;;1.75;;
76423;SDS011;65257;52.104;4.268;2023-08-21T08:35:22;11.38;;;1.70;;
76423;SDS011;65257;52.104;4.268;2023-08-21T08:37:47;7.35;;;1.70;;
76423;SDS011;65257;52.104;4.268;2023-08-21T08:40:16;5.70;;;1.65;;
76423;SDS011;65257;52.104;4.268;2023-08-21T08:42:41;7.28;;;2.00;;
76423;SDS011;65257;52.104;4.268;2023-08-21T08:45:07;6.20;;;1.55;;
76423;SDS011;65257;52.104;4.268;2023-08-21T08:47:34;4.97;;;1.30;;
76423;SDS011;65257;52.104;4.268;2023-08-21T08:50:03;5.45;;;1.67;;
76423;SDS011;65257;52.104;4.268;2023-08-21T08:52:39;7.53;;;1.98;;
76423;SDS011;65257;52.104;4.268;2023-08-21T08:55:05;8.30;;;1.48;;
76423;SDS011;65257;52.104;4.268;2023-08-21T08:57:34;6.07;;;1.70;;
76423;SDS011;65257;52.104;4.268;2023-08-21T09:00:03;4.93;;;1.85;;
76423;SDS011;65257;52.104;4.268;2023-08-21T09:02:33;5.15;;;1.40;;
76423;SDS011;65257;52.104;4.268;2023-08-21T09:04:59;8.55;;;1.98;;
76423;SDS011;65257;52.104;4.268;2023-08-21T09:07:24;7.22;;;1.80;;
76423;SDS011;65257;52.104;4.268;2023-08-21T09:10:02;6.43;;;1.70;;
76423;SDS011;65257;52.104;4.268;2023-08-21T09:12:37;7.00;;;2.30;;
76423;SDS011;65257;52.104;4.268;2023-08-21T09:15:06;5.82;;;1.80;;
76423;SDS011;65257;52.104;4.268;2023-08-21T09:17:33;5.70;;;1.67;;
76423;SDS011;65257;52.104;4.268;2023-08-21T09:20:05;6.07;;;1.90;;
76423;SDS011;65257;52.104;4.268;2023-08-21T09:22:35;7.47;;;1.42;;
76423;SDS011;65257;52.104;4.268;2023-08-21T09:25:02;7.32;;;1.85;;
76423;SDS011;65257;52.104;4.268;2023-08-21T09:27:36;12.15;;;2.15;;
76423;SDS011;65257;52.104;4.268;2023-08-21T09:30:04;4.90;;;1.63;;
76423;SDS011;65257;52.104;4.268;2023-08-21T09:32:52;7.45;;;1.80;;
76423;SDS011;65257;52.104;4.268;2023-08-21T09:35:22;8.13;;;2.13;;
76423;SDS011;65257;52.104;4.268;2023-08-21T09:37:49;6.43;;;1.90;;
76423;SDS011;65257;52.104;4.268;2023-08-21T09:40:18;3.97;;;1.38;;
76423;SDS011;65257;52.104;4.268;2023-08-21T09:42:43;5.93;;;2.08;;
76423;SDS011;65257;52.104;4.268;2023-08-21T09:45:12;7.25;;;1.92;;
76423;SDS011;65257;52.104;4.268;2023-08-21T09:47:38;7.30;;;1.63;;
76423;SDS011;65257;52.104;4.268;2023-08-21T09:50:10;4.63;;;1.60;;
76423;SDS011;65257;52.104;4.268;2023-08-21T09:52:35;7.32;;;1.95;;
76423;SDS011;65257;52.104;4.268;2023-08-21T09:55:00;3.95;;;1.83;;
76423;SDS011;65257;52.104;4.268;2023-08-21T09:57:28;2.85;;;1.30;;
76423;SDS011;65257;52.104;4.268;2023-08-21T09:59:55;5.05;;;1.67;;
76423;SDS011;65257;52.104;4.268;2023-08-21T10:02:26;6.25;;;1.80;;
76423;SDS011;65257;52.104;4.268;2023-08-21T10:04:53;7.82;;;1.90;;
76423;SDS011;65257;52.104;4.268;2023-08-21T10:07:20;6.53;;;1.80;;
76423;SDS011;65257;52.104;4.268;2023-08-21T10:09:51;7.18;;;2.00;;
76423;SDS011;65257;52.104;4.268;2023-08-21T10:12:17;3.72;;;1.60;;
76423;SDS011;65257;52.104;4.268;2023-08-21T10:14:44;5.22;;;2.00;;
76423;SDS011;65257;52.104;4.268;2023-08-21T10:17:09;5.47;;;1.75;;
76423;SDS011;65257;52.104;4.268;2023-08-21T10:19:35;7.25;;;1.77;;
76423;SDS011;65257;52.104;4.268;2023-08-21T10:22:01;5.88;;;1.98;;
76423;SDS011;65257;52.104;4.268;2023-08-21T10:24:37;7.30;;;2.00;;
76423;SDS011;65257;52.104;4.268;2023-08-21T10:27:14;6.80;;;2.15;;
76423;SDS011;65257;52.104;4.268;2023-08-21T10:29:46;5.18;;;1.73;;
76423;SDS011;65257;52.104;4.268;2023-08-21T10:32:25;5.15;;;1.67;;
76423;SDS011;65257;52.104;4.268;2023-08-21T10:34:56;7.88;;;2.40;;
76423;SDS011;65257;52.104;4.268;2023-08-21T10:37:25;6.30;;;2.20;;
76423;SDS011;65257;52.104;4.268;2023-08-21T10:39:59;6.82;;;2.00;;
76423;SDS011;65257;52.104;4.268;2023-08-21T10:42:46;8.32;;;1.88;;
76423;SDS011;65257;52.104;4.268;2023-08-21T10:45:13;5.28;;;2.20;;
76423;SDS011;65257;52.104;4.268;2023-08-21T10:47:39;6.72;;;1.60;;
76423;SDS011;65257;52.104;4.268;2023-08-21T10:50:07;4.10;;;1.90;;
76423;SDS011;65257;52.104;4.268;2023-08-21T10:52:37;5.75;;;1.80;;
76423;SDS011;65257;52.104;4.268;2023-08-21T10:55:11;6.30;;;1.50;;
76423;SDS011;65257;52.104;4.268;2023-08-21T10:57:46;6.55;;;1.83;;
76423;SDS011;65257;52.104;4.268;2023-08-21T11:00:19;4.18;;;1.52;;
76423;SDS011;65257;52.104;4.268;2023-08-21T11:02:47;5.43;;;1.77;;
76423;SDS011;65257;52.104;4.268;2023-08-21T11:05:14;6.18;;;2.05;;
76423;SDS011;65257;52.104;4.268;2023-08-21T11:07:52;4.63;;;1.67;;
76423;SDS011;65257;52.104;4.268;2023-08-21T11:10:19;8.20;;;2.30;;
76423;SDS011;65257;52.104;4.268;2023-08-21T11:12:51;6.38;;;1.90;;
76423;SDS011;65257;52.104;4.268;2023-08-21T11:20:22;5.00;;;2.15;;
76423;SDS011;65257;52.104;4.268;2023-08-21T11:22:55;6.10;;;2.10;;
76423;SDS011;65257;52.104;4.268;2023-08-21T11:25:33;6.40;;;2.33;;
76423;SDS011;65257;52.104;4.268;2023-08-21T11:28:00;5.40;;;1.42;;
76423;SDS011;65257;52.104;4.268;2023-08-21T11:30:33;5.07;;;1.92;;
76423;SDS011;65257;52.104;4.268;2023-08-21T11:33:12;4.57;;;2.00;;
76423;SDS011;65257;52.104;4.268;2023-08-21T11:35:41;7.20;;;1.90;;
76423;SDS011;65257;52.104;4.268;2023-08-21T11:38:18;4.60;;;1.83;;
76423;SDS011;65257;52.104;4.268;2023-08-21T11:41:00;7.75;;;2.28;;
76423;SDS011;65257;52.104;4.268;2023-08-21T11:44:04;4.30;;;1.85;;
76423;SDS011;65257;52.104;4.268;2023-08-21T11:46:54;7.03;;;2.03;;
76423;SDS011;65257;52.104;4.268;2023-08-21T11:49:21;4.22;;;1.73;;
76423;SDS011;65257;52.104;4.268;2023-08-21T11:54:52;7.82;;;1.90;;
76423;SDS011;65257;52.104;4.268;2023-08-21T11:57:19;4.57;;;1.90;;
76423;SDS011;65257;52.104;4.268;2023-08-21T11:59:58;7.53;;;3.10;;
76423;SDS011;65257;52.104;4.268;2023-08-21T12:02:24;6.28;;;2.17;;
76423;SDS011;65257;52.104;4.268;2023-08-21T12:05:03;5.25;;;1.85;;
76423;SDS011;65257;52.104;4.268;2023-08-21T12:07:41;5.28;;;2.17;;
76423;SDS011;65257;52.104;4.268;2023-08-21T12:10:06;4.35;;;1.60;;
76423;SDS011;65257;52.104;4.268;2023-08-21T12:12:35;7.25;;;2.25;;
76423;SDS011;65257;52.104;4.268;2023-08-21T12:15:07;6.25;;;2.10;;
76423;SDS011;65257;52.104;4.268;2023-08-21T12:17:32;6.47;;;2.22;;
76423;SDS011;65257;52.104;4.268;2023-08-21T12:19:58;4.57;;;1.70;;
76423;SDS011;65257;52.104;4.268;2023-08-21T12:22:26;5.93;;;2.00;;
76423;SDS011;65257;52.104;4.268;2023-08-21T12:24:52;6.70;;;1.73;;
76423;SDS011;65257;52.104;4.268;2023-08-21T12:27:17;9.88;;;1.63;;
76423;SDS011;65257;52.104;4.268;2023-08-21T12:29:51;5.57;;;2.00;;
76423;SDS011;65257;52.104;4.268;2023-08-21T12:32:19;4.80;;;1.63;;
76423;SDS011;65257;52.104;4.268;2023-08-21T12:34:48;5.75;;;1.60;;
76423;SDS011;65257;52.104;4.268;2023-08-21T12:37:13;7.18;;;2.40;;
76423;SDS011;65257;52.104;4.268;2023-08-21T12:39:38;5.10;;;2.22;;
76423;SDS011;65257;52.104;4.268;2023-08-21T12:42:07;7.82;;;1.60;;
76423;SDS011;65257;52.104;4.268;2023-08-21T12:44:35;9.35;;;2.22;;
76423;SDS011;65257;52.104;4.268;2023-08-21T12:47:01;6.15;;;1.70;;
76423;SDS011;65257;52.104;4.268;2023-08-21T12:49:26;5.32;;;1.60;;
76423;SDS011;65257;52.104;4.268;2023-08-21T12:51:56;4.97;;;1.83;;
76423;SDS011;65257;52.104;4.268;2023-08-21T12:54:22;6.72;;;1.60;;
76423;SDS011;65257;52.104;4.268;2023-08-21T12:56:47;9.35;;;1.95;;
76423;SDS011;65257;52.104;4.268;2023-08-21T12:59:19;7.65;;;2.20;;
76423;SDS011;65257;52.104;4.268;2023-08-21T13:01:45;6.47;;;1.83;;
76423;SDS011;65257;52.104;4.268;2023-08-21T13:04:10;6.40;;;1.83;;
76423;SDS011;65257;52.104;4.268;2023-08-21T13:06:36;6.65;;;2.22;;
76423;SDS011;65257;52.104;4.268;2023-08-21T13:09:01;5.10;;;1.60;;
76423;SDS011;65257;52.104;4.268;2023-08-21T13:11:28;5.70;;;1.70;;
76423;SDS011;65257;52.104;4.268;2023-08-21T13:13:57;5.70;;;2.13;;
76423;SDS011;65257;52.104;4.268;2023-08-21T13:16:23;9.48;;;1.95;;
76423;SDS011;65257;52.104;4.268;2023-08-21T13:18:48;12.88;;;2.35;;
76423;SDS011;65257;52.104;4.268;2023-08-21T13:21:13;7.45;;;2.40;;
76423;SDS011;65257;52.104;4.268;2023-08-21T13:23:39;7.75;;;2.10;;
76423;SDS011;65257;52.104;4.268;2023-08-21T13:26:04;5.35;;;1.70;;
76423;SDS011;65257;52.104;4.268;2023-08-21T13:28:30;5.88;;;2.15;;
76423;SDS011;65257;52.104;4.268;2023-08-21T13:30:56;6.30;;;1.52;;
76423;SDS011;65257;52.104;4.268;2023-08-21T13:33:22;4.65;;;1.90;;
76423;SDS011;65257;52.104;4.268;2023-08-21T13:35:47;7.47;;;1.80;;
76423;SDS011;65257;52.104;4.268;2023-08-21T13:38:15;6.53;;;1.85;;
76423;SDS011;65257;52.104;4.268;2023-08-21T13:40:41;7.45;;;1.75;;
76423;SDS011;65257;52.104;4.268;2023-08-21T13:43:07;4.60;;;1.50;;
76423;SDS011;65257;52.104;4.268;2023-08-21T13:45:35;6.20;;;1.50;;
76423;SDS011;65257;52.104;4.268;2023-08-21T13:48:00;4.07;;;1.40;;
76423;SDS011;65257;52.104;4.268;2023-08-21T13:50:26;6.28;;;1.70;;
76423;SDS011;65257;52.104;4.268;2023-08-21T13:52:51;6.97;;;1.83;;
76423;SDS011;65257;52.104;4.268;2023-08-21T13:55:17;6.07;;;1.60;;
76423;SDS011;65257;52.104;4.268;2023-08-21T13:57:43;5.07;;;1.85;;
76423;SDS011;65257;52.104;4.268;2023-08-21T14:00:09;4.93;;;1.35;;
76423;SDS011;65257;52.104;4.268;2023-08-21T14:02:39;6.63;;;1.40;;
76423;SDS011;65257;52.104;4.268;2023-08-21T14:05:06;6.35;;;1.75;;
76423;SDS011;65257;52.104;4.268;2023-08-21T14:07:32;5.53;;;1.48;;
76423;SDS011;65257;52.104;4.268;2023-08-21T14:09:58;4.22;;;1.33;;
76423;SDS011;65257;52.104;4.268;2023-08-21T14:12:24;4.65;;;1.60;;
76423;SDS011;65257;52.104;4.268;2023-08-21T14:14:50;6.07;;;1.40;;
76423;SDS011;65257;52.104;4.268;2023-08-21T14:17:16;6.38;;;1.48;;
76423;SDS011;65257;52.104;4.268;2023-08-21T14:19:41;6.10;;;1.73;;
76423;SDS011;65257;52.104;4.268;2023-08-21T14:22:07;3.67;;;1.48;;
76423;SDS011;65257;52.104;4.268;2023-08-21T14:24:32;3.28;;;1.58;;
76423;SDS011;65257;52.104;4.268;2023-08-21T14:26:58;6.68;;;1.50;;
76423;SDS011;65257;52.104;4.268;2023-08-21T14:29:27;5.30;;;1.90;;
76423;SDS011;65257;52.104;4.268;2023-08-21T14:31:52;4.85;;;1.45;;
76423;SDS011;65257;52.104;4.268;2023-08-21T14:34:22;7.90;;;2.05;;
76423;SDS011;65257;52.104;4.268;2023-08-21T14:36:47;4.13;;;1.33;;
76423;SDS011;65257;52.104;4.268;2023-08-21T14:39:13;5.50;;;1.50;;
76423;SDS011;65257;52.104;4.268;2023-08-21T14:41:42;3.72;;;1.20;;
76423;SDS011;65257;52.104;4.268;2023-08-21T14:44:07;6.00;;;1.42;;
76423;SDS011;65257;52.104;4.268;2023-08-21T14:46:33;5.90;;;2.15;;
76423;SDS011;65257;52.104;4.268;2023-08-21T14:48:59;3.83;;;1.50;;
76423;SDS011;65257;52.104;4.268;2023-08-21T14:51:25;3.80;;;1.70;;
76423;SDS011;65257;52.104;4.268;2023-08-21T14:53:56;5.85;;;1.30;;
76423;SDS011;65257;52.104;4.268;2023-08-21T14:56:22;7.60;;;1.85;;
76423;SDS011;65257;52.104;4.268;2023-08-21T14:58:50;5.72;;;1.75;;
76423;SDS011;65257;52.104;4.268;2023-08-21T15:01:16;6.57;;;1.55;;